Time;durP1;ratioP1;P1;durP2;ratioP2;P2;SDS_P1;SDS_P2;PMS_P1;PMS_P2;Temp;Humidity;BMP_temperature;BMP_pressure;BME280_temperature;BME280_humidity;BME280_pressure;Samples;Min_cycle;Max_cycle;Signal;HPM_P1;HPM_P2
2022/05/23 00:02:08;;;;;;;;;;;14.40;1.00;;;;;;5067022;28;19921;-84
2022/05/23 00:04:34;;;;;;;;;;;14.40;1.00;;;;;;5063242;28;19943;-84
2022/05/23 00:07:00;;;;;;;;;;;14.30;1.00;;;;;;5070043;28;20375;-84
2022/05/23 00:09:26;;;;;;;;;;;14.30;1.00;;;;;;5064768;28;20017;-84
2022/05/23 00:11:51;;;;;;;;;;;14.30;1.00;;;;;;5054025;28;19919;-84
2022/05/23 00:14:17;;;;;;;;;;;14.30;1.00;;;;;;5071407;28;19924;-82
2022/05/23 00:16:45;;;;;;;;;;;14.30;1.00;;;;;;5065124;28;19919;-84
2022/05/23 00:19:10;;;;;;;;;;;14.30;1.00;;;;;;5071373;28;19909;-84
2022/05/23 00:21:36;;;;;;;;;;;14.30;1.00;;;;;;5056591;28;19920;-84
2022/05/23 00:24:02;;;;;;;;;;;14.30;1.00;;;;;;5061888;28;19914;-84
2022/05/23 00:26:27;;;;;;;;;;;14.20;1.00;;;;;;5074438;28;19962;-84
2022/05/23 00:28:53;;;;;;;;;;;14.20;1.00;;;;;;5059919;28;20430;-84
2022/05/23 00:31:18;;;;;;;;;;;14.20;1.00;;;;;;5087088;28;19917;-84
2022/05/23 00:36:29;;;;;;;;;;;14.10;1.00;;;;;;5055510;28;19927;-84
2022/05/23 00:38:54;;;;;;;;;;;14.10;1.00;;;;;;5073691;28;19967;-84
2022/05/23 00:44:20;;;;;;;;;;;14.10;1.00;;;;;;5048749;28;19955;-84
2022/05/23 00:46:51;;;;;;;;;;;14.10;1.00;;;;;;5061945;28;19963;-84
2022/05/23 00:49:21;;;;;;;;;;;14.10;1.00;;;;;;5073641;28;19956;-84
2022/05/23 00:51:47;;;;;;;;;;;14.20;1.00;;;;;;5067123;28;19916;-84
2022/05/23 00:54:13;;;;;;;;;;;14.20;1.00;;;;;;5074039;28;19974;-84
2022/05/23 00:56:43;;;;;;;;;;;14.30;1.00;;;;;;5069278;28;20342;-84
2022/05/23 00:59:10;;;;;;;;;;;14.40;1.00;;;;;;5063277;28;19913;-84
2022/05/23 01:01:36;;;;;;;;;;;14.40;1.00;;;;;;5055789;28;19952;-75
2022/05/23 01:04:02;;;;;;;;;;;14.50;1.00;;;;;;5066262;28;20275;-75
2022/05/23 01:06:34;;;;;;;;;;;14.50;1.00;;;;;;5063382;28;19920;-76
2022/05/23 01:09:00;;;;;;;;;;;14.60;1.00;;;;;;5076995;28;19908;-76
2022/05/23 01:11:26;;;;;;;;;;;14.70;1.00;;;;;;5060717;28;19913;-76
2022/05/23 01:13:53;;;;;;;;;;;14.70;1.00;;;;;;5055558;28;19913;-76
2022/05/23 01:16:20;;;;;;;;;;;14.80;1.00;;;;;;5069997;28;19970;-75
2022/05/23 01:18:46;;;;;;;;;;;14.80;1.00;;;;;;5063579;28;19966;-75
2022/05/23 01:21:15;;;;;;;;;;;15.00;1.00;;;;;;5063230;28;20320;-75
2022/05/23 01:23:50;;;;;;;;;;;15.10;1.00;;;;;;5076811;28;19908;-76
2022/05/23 01:26:16;;;;;;;;;;;15.00;1.00;;;;;;5057779;28;19944;-76
2022/05/23 01:28:42;;;;;;;;;;;15.10;1.00;;;;;;5068162;28;20013;-76
2022/05/23 01:31:09;;;;;;;;;;;15.10;1.00;;;;;;5068007;28;19927;-84
2022/05/23 01:33:35;;;;;;;;;;;15.20;1.00;;;;;;5071827;28;19909;-84
2022/05/23 01:36:01;;;;;;;;;;;15.30;1.00;;;;;;5068274;28;19916;-84
2022/05/23 01:38:26;;;;;;;;;;;15.30;1.00;;;;;;5076800;28;19915;-84
2022/05/23 01:40:54;;;;;;;;;;;15.30;1.00;;;;;;5070354;28;19935;-84
2022/05/23 01:43:19;;;;;;;;;;;15.40;1.00;;;;;;5062867;28;19919;-84
2022/05/23 01:45:45;;;;;;;;;;;15.30;1.00;;;;;;5061772;28;19913;-76
2022/05/23 01:48:10;;;;;;;;;;;15.20;1.00;;;;;;5071989;28;19939;-76
2022/05/23 01:50:36;;;;;;;;;;;15.20;1.00;;;;;;5060668;28;19917;-75
2022/05/23 01:53:02;;;;;;;;;;;15.20;1.00;;;;;;5059741;28;20386;-75
2022/05/23 01:55:27;;;;;;;;;;;15.20;1.00;;;;;;5057744;28;20394;-76
2022/05/23 01:57:53;;;;;;;;;;;15.10;1.00;;;;;;5058392;28;19912;-76
2022/05/23 02:03:03;;;;;;;;;;;15.00;1.00;;;;;;5060913;28;19957;-76
2022/05/23 02:05:30;;;;;;;;;;;14.90;1.00;;;;;;5067758;28;19913;-76
2022/05/23 02:07:57;;;;;;;;;;;14.90;1.00;;;;;;5072311;28;19920;-76
2022/05/23 02:10:28;;;;;;;;;;;14.80;1.00;;;;;;5076016;28;19917;-76
2022/05/23 02:12:53;;;;;;;;;;;14.80;1.00;;;;;;5061515;28;19913;-75
2022/05/23 02:15:19;;;;;;;;;;;14.70;1.00;;;;;;5055851;28;19919;-76
2022/05/23 02:17:45;;;;;;;;;;;14.70;1.00;;;;;;5068077;28;20383;-84
2022/05/23 02:20:11;;;;;;;;;;;14.60;1.00;;;;;;5056121;28;20011;-84
2022/05/23 02:22:37;;;;;;;;;;;14.60;1.00;;;;;;5053791;28;20008;-84
2022/05/23 02:25:03;;;;;;;;;;;14.60;1.00;;;;;;5056159;28;19917;-84
2022/05/23 02:27:30;;;;;;;;;;;14.50;1.00;;;;;;5074483;28;19916;-84
2022/05/23 02:29:56;;;;;;;;;;;14.40;1.00;;;;;;5069804;28;19916;-83
2022/05/23 02:32:22;;;;;;;;;;;14.40;1.00;;;;;;5075464;28;19935;-84
2022/05/23 02:34:48;;;;;;;;;;;14.40;1.00;;;;;;5068513;28;19927;-84
2022/05/23 02:37:13;;;;;;;;;;;14.30;1.00;;;;;;5069457;28;19998;-84
2022/05/23 02:39:39;;;;;;;;;;;14.40;1.00;;;;;;5074848;28;19944;-84
2022/05/23 02:42:05;;;;;;;;;;;14.40;1.00;;;;;;5055382;28;19919;-84
2022/05/23 02:44:30;;;;;;;;;;;14.30;1.00;;;;;;5048827;28;19908;-84
2022/05/23 02:46:56;;;;;;;;;;;14.30;1.00;;;;;;5064249;28;20371;-84
2022/05/23 02:49:21;;;;;;;;;;;14.20;1.00;;;;;;5068998;28;19959;-84
2022/05/23 02:51:47;;;;;;;;;;;14.20;1.00;;;;;;5057530;28;19917;-83
2022/05/23 02:54:13;;;;;;;;;;;14.20;1.00;;;;;;5075408;28;19984;-84
2022/05/23 02:56:39;;;;;;;;;;;14.20;1.00;;;;;;5065529;28;20007;-84
2022/05/23 02:59:04;;;;;;;;;;;14.30;1.00;;;;;;5058271;28;20414;-84
2022/05/23 03:01:30;;;;;;;;;;;14.20;1.00;;;;;;5072352;28;20276;-83
2022/05/23 03:03:56;;;;;;;;;;;14.30;1.00;;;;;;5068636;28;20014;-84
2022/05/23 03:06:21;;;;;;;;;;;14.20;1.00;;;;;;5055238;28;20360;-83
2022/05/23 03:08:47;;;;;;;;;;;14.20;1.00;;;;;;5070327;28;19950;-84
2022/05/23 03:11:12;;;;;;;;;;;14.30;1.00;;;;;;5069583;28;19999;-84
2022/05/23 03:13:38;;;;;;;;;;;14.40;1.00;;;;;;5075342;28;19908;-84
2022/05/23 03:16:10;;;;;;;;;;;14.30;1.00;;;;;;5062463;28;19916;-78
2022/05/23 03:18:36;;;;;;;;;;;14.40;1.00;;;;;;5056523;28;19996;-75
2022/05/23 03:21:04;;;;;;;;;;;14.40;1.00;;;;;;5061914;28;20016;-76
2022/05/23 03:29:02;;;;;;;;;;;14.60;1.00;;;;;;5062277;28;19924;-76
2022/05/23 03:31:28;;;;;;;;;;;14.70;1.00;;;;;;5073163;28;19920;-83
2022/05/23 03:33:54;;;;;;;;;;;14.70;1.00;;;;;;5066937;28;19912;-84
2022/05/23 03:36:20;;;;;;;;;;;14.80;1.00;;;;;;5056479;28;20314;-85
2022/05/23 03:38:46;;;;;;;;;;;14.90;1.00;;;;;;5068473;28;19913;-83
2022/05/23 03:41:11;;;;;;;;;;;15.00;1.00;;;;;;5069993;28;19909;-84
2022/05/23 03:43:37;;;;;;;;;;;15.00;1.00;;;;;;5070056;28;19965;-83
2022/05/23 03:46:07;;;;;;;;;;;15.20;1.00;;;;;;5074501;28;19909;-84
2022/05/23 03:48:32;;;;;;;;;;;15.10;1.00;;;;;;5070840;28;20007;-84
2022/05/23 03:50:58;;;;;;;;;;;15.30;1.00;;;;;;5060285;28;20397;-84
2022/05/23 03:53:23;;;;;;;;;;;15.20;99.90;;;;;;5071258;28;19913;-84
2022/05/23 03:55:52;;;;;;;;;;;15.30;99.90;;;;;;5092516;28;20283;-84
2022/05/23 03:58:17;;;;;;;;;;;15.30;99.90;;;;;;5050946;28;19920;-83
2022/05/23 04:00:48;;;;;;;;;;;15.40;99.90;;;;;;5074305;28;20276;-84
2022/05/23 04:03:15;;;;;;;;;;;15.40;99.90;;;;;;5102277;28;19935;-76
2022/05/23 04:05:41;;;;;;;;;;;15.50;99.90;;;;;;5047617;28;20347;-75
2022/05/23 04:08:07;;;;;;;;;;;15.60;99.90;;;;;;5050622;28;19919;-76
2022/05/23 04:10:32;;;;;;;;;;;15.60;99.90;;;;;;5054545;28;20275;-76
2022/05/23 04:13:01;;;;;;;;;;;15.60;99.90;;;;;;5058712;28;19922;-76
2022/05/23 04:15:27;;;;;;;;;;;15.70;99.90;;;;;;5067576;28;19955;-76
2022/05/23 04:17:52;;;;;;;;;;;15.80;99.90;;;;;;5066970;28;19912;-84
2022/05/23 04:20:18;;;;;;;;;;;16.00;99.90;;;;;;5067255;28;19912;-84
2022/05/23 04:22:43;;;;;;;;;;;15.90;99.90;;;;;;5053700;28;19916;-84
2022/05/23 04:25:09;;;;;;;;;;;15.90;99.90;;;;;;5064140;28;19952;-84
2022/05/23 04:27:35;;;;;;;;;;;16.00;99.90;;;;;;5054040;28;19951;-76
2022/05/23 04:30:05;;;;;;;;;;;16.00;99.90;;;;;;5063228;28;20395;-76
2022/05/23 04:35:15;;;;;;;;;;;16.10;99.90;;;;;;5048834;28;19981;-79
2022/05/23 04:37:45;;;;;;;;;;;16.10;99.90;;;;;;5052739;28;20355;-79
2022/05/23 04:40:11;;;;;;;;;;;16.10;99.90;;;;;;5085263;28;19920;-79
2022/05/23 04:42:37;;;;;;;;;;;16.10;99.90;;;;;;5046353;28;19908;-79
2022/05/23 04:45:03;;;;;;;;;;;16.10;99.90;;;;;;5068457;28;20253;-78
2022/05/23 04:50:12;;;;;;;;;;;16.20;99.90;;;;;;5058567;28;20403;-76
2022/05/23 04:52:38;;;;;;;;;;;16.20;99.90;;;;;;5069637;28;19956;-76
2022/05/23 04:55:03;;;;;;;;;;;16.20;99.90;;;;;;5053307;28;20005;-76
2022/05/23 04:57:29;;;;;;;;;;;16.30;99.90;;;;;;5062019;28;19995;-77
2022/05/23 05:00:17;;;;;;;;;;;16.30;99.90;;;;;;5046830;28;19998;-76
2022/05/23 05:02:43;;;;;;;;;;;16.30;99.90;;;;;;5053887;28;19920;-77
2022/05/23 05:05:09;;;;;;;;;;;16.40;99.90;;;;;;5060988;28;19909;-75
2022/05/23 05:07:34;;;;;;;;;;;16.50;99.90;;;;;;5053347;28;19913;-75
2022/05/23 05:10:00;;;;;;;;;;;16.50;99.90;;;;;;5057239;28;19912;-76
2022/05/23 05:12:27;;;;;;;;;;;16.60;99.90;;;;;;5069949;28;19909;-75
2022/05/23 05:14:53;;;;;;;;;;;16.70;99.90;;;;;;5055837;28;19986;-76
2022/05/23 05:17:19;;;;;;;;;;;16.70;99.90;;;;;;5065512;28;20391;-77
2022/05/23 05:19:44;;;;;;;;;;;16.80;99.90;;;;;;5070840;28;20006;-78
2022/05/23 05:22:10;;;;;;;;;;;16.80;99.90;;;;;;5063551;28;20354;-78
2022/05/23 05:24:35;;;;;;;;;;;16.70;99.90;;;;;;5070643;28;19915;-77
2022/05/23 05:27:02;;;;;;;;;;;16.80;99.90;;;;;;5049754;28;20008;-77
2022/05/23 05:29:28;;;;;;;;;;;16.80;99.90;;;;;;5030293;28;19925;-77
2022/05/23 05:32:00;;;;;;;;;;;16.80;99.90;;;;;;5033326;28;19944;-77
2022/05/23 05:34:29;;;;;;;;;;;16.80;99.90;;;;;;5016502;28;20353;-78
2022/05/23 05:37:00;;;;;;;;;;;16.90;99.90;;;;;;5051212;28;19963;-78
2022/05/23 05:39:27;;;;;;;;;;;16.90;99.90;;;;;;5041585;28;19956;-77
2022/05/23 05:41:58;;;;;;;;;;;16.90;99.90;;;;;;5027955;28;19921;-77
2022/05/23 05:44:26;;;;;;;;;;;16.90;99.90;;;;;;5037931;28;19936;-77
2022/05/23 05:46:54;;;;;;;;;;;16.80;99.90;;;;;;5052031;28;19913;-78
2022/05/23 05:49:22;;;;;;;;;;;16.80;99.90;;;;;;5043749;28;19993;-79
2022/05/23 05:51:48;;;;;;;;;;;16.70;99.90;;;;;;5052912;28;20094;-86
2022/05/23 05:54:21;;;;;;;;;;;16.70;99.90;;;;;;5036515;28;19909;-85
2022/05/23 05:56:48;;;;;;;;;;;16.70;99.90;;;;;;5052011;28;20389;-85
2022/05/23 05:59:13;;;;;;;;;;;16.80;1.00;;;;;;5027468;28;19921;-85
2022/05/23 06:01:40;;;;;;;;;;;16.80;1.00;;;;;;5047598;28;20279;-84
2022/05/23 06:04:09;;;;;;;;;;;17.00;1.00;;;;;;5036648;28;19920;-86
2022/05/23 06:12:13;;;;;;;;;;;17.10;1.00;;;;;;5049329;28;19975;-85
2022/05/23 06:14:39;;;;;;;;;;;17.20;1.00;;;;;;5035702;28;20420;-75
2022/05/23 06:17:08;;;;;;;;;;;17.20;1.00;;;;;;5040269;28;20001;-74
2022/05/23 06:19:40;;;;;;;;;;;17.20;1.00;;;;;;5046496;28;19913;-73
2022/05/23 06:22:06;;;;;;;;;;;17.30;1.00;;;;;;5055448;28;19909;-73
2022/05/23 06:24:31;;;;;;;;;;;17.30;1.00;;;;;;5036786;28;20254;-73
2022/05/23 06:26:57;;;;;;;;;;;17.30;1.00;;;;;;5050072;28;19958;-73
2022/05/23 06:29:22;;;;;;;;;;;17.40;1.00;;;;;;5063825;28;19920;-73
2022/05/23 06:31:48;;;;;;;;;;;17.60;1.00;;;;;;5074075;28;20418;-73
2022/05/23 06:34:13;;;;;;;;;;;17.70;1.00;;;;;;5032299;28;19925;-73
2022/05/23 06:36:40;;;;;;;;;;;17.80;1.00;;;;;;5054009;28;19916;-73
2022/05/23 06:39:06;;;;;;;;;;;17.90;99.90;;;;;;5067225;28;19913;-73
2022/05/23 06:41:31;;;;;;;;;;;17.80;99.90;;;;;;5072529;28;19916;-73
2022/05/23 06:43:57;;;;;;;;;;;17.90;1.00;;;;;;5068262;28;20135;-73
2022/05/23 06:46:23;;;;;;;;;;;17.90;1.00;;;;;;5074986;28;20006;-73
2022/05/23 06:48:49;;;;;;;;;;;17.80;1.00;;;;;;5065390;28;19967;-73
2022/05/23 06:51:14;;;;;;;;;;;17.90;1.00;;;;;;5054120;28;19909;-73
2022/05/23 06:53:40;;;;;;;;;;;17.90;99.90;;;;;;5057418;28;19912;-73
2022/05/23 06:56:06;;;;;;;;;;;18.00;99.90;;;;;;5055730;28;19984;-73
2022/05/23 06:58:31;;;;;;;;;;;18.10;99.90;;;;;;5048074;28;19920;-73
2022/05/23 07:00:57;;;;;;;;;;;18.40;99.90;;;;;;5055813;28;19917;-73
2022/05/23 07:03:27;;;;;;;;;;;18.80;99.90;;;;;;5056084;28;20374;-73
2022/05/23 07:14:05;;;;;;;;;;;20.20;99.90;;;;;;5061203;28;20332;-73
2022/05/23 07:16:31;;;;;;;;;;;20.60;99.90;;;;;;5059386;28;20015;-73
2022/05/23 07:18:57;;;;;;;;;;;20.90;99.90;;;;;;5051556;28;19912;-74
2022/05/23 07:21:24;;;;;;;;;;;21.30;99.90;;;;;;5065005;28;19920;-74
2022/05/23 07:23:50;;;;;;;;;;;21.50;99.90;;;;;;5073092;28;20407;-74
2022/05/23 07:26:16;;;;;;;;;;;21.60;99.90;;;;;;5065442;28;20046;-74
2022/05/23 07:28:46;;;;;;;;;;;21.50;99.90;;;;;;5055953;28;20269;-74
2022/05/23 07:31:12;;;;;;;;;;;21.50;99.90;;;;;;5065882;28;20394;-74
2022/05/23 07:33:39;;;;;;;;;;;21.30;99.90;;;;;;5070000;28;19912;-73
2022/05/23 07:36:05;;;;;;;;;;;21.40;99.90;;;;;;5068036;28;20003;-74
2022/05/23 07:38:31;;;;;;;;;;;21.50;99.90;;;;;;5070563;28;19997;-75
2022/05/23 07:40:58;;;;;;;;;;;21.50;99.90;;;;;;5058573;28;20383;-75
2022/05/23 07:43:23;;;;;;;;;;;21.60;99.90;;;;;;5054637;28;20350;-75
2022/05/23 07:45:50;;;;;;;;;;;21.60;99.90;;;;;;5046762;28;19909;-75
2022/05/23 07:48:16;;;;;;;;;;;21.60;99.90;;;;;;5056872;28;19931;-74
2022/05/23 07:50:43;;;;;;;;;;;21.70;99.90;;;;;;5065048;28;19909;-73
2022/05/23 08:01:22;;;;;;;;;;;22.50;99.90;;;;;;5070604;28;19916;-73
2022/05/23 08:03:47;;;;;;;;;;;22.60;99.90;;;;;;5059598;28;19912;-73
2022/05/23 08:06:13;;;;;;;;;;;22.70;99.90;;;;;;5058140;28;20396;-73
2022/05/23 08:08:39;;;;;;;;;;;22.90;99.90;;;;;;5063872;28;20268;-73
2022/05/23 08:11:08;;;;;;;;;;;23.00;99.90;;;;;;5066895;28;19932;-73
2022/05/23 08:13:38;;;;;;;;;;;23.10;99.90;;;;;;5063971;28;19908;-73
2022/05/23 08:16:04;;;;;;;;;;;23.10;99.90;;;;;;5062063;28;19917;-73
2022/05/23 08:18:29;;;;;;;;;;;23.20;99.90;;;;;;5067465;28;19965;-73
2022/05/23 08:20:55;;;;;;;;;;;23.30;99.90;;;;;;5059825;28;20264;-74
2022/05/23 08:23:21;;;;;;;;;;;23.30;99.90;;;;;;5053061;28;19913;-74
2022/05/23 08:25:46;;;;;;;;;;;23.30;99.90;;;;;;5070915;28;19908;-75
2022/05/23 08:28:12;;;;;;;;;;;23.30;99.90;;;;;;5061825;28;19917;-75
2022/05/23 08:30:37;;;;;;;;;;;23.30;99.90;;;;;;5058552;28;20016;-75
2022/05/23 08:33:03;;;;;;;;;;;23.20;99.90;;;;;;5063324;28;19908;-75
2022/05/23 08:35:29;;;;;;;;;;;23.30;99.90;;;;;;5063071;28;20006;-72
2022/05/23 08:37:54;;;;;;;;;;;23.40;99.90;;;;;;5072859;28;19917;-73
2022/05/23 08:40:21;;;;;;;;;;;23.60;99.90;;;;;;5072866;28;19912;-73
2022/05/23 08:42:56;;;;;;;;;;;23.70;99.90;;;;;;5040886;28;19920;-73
2022/05/23 08:45:22;;;;;;;;;;;23.80;99.90;;;;;;5055691;28;20039;-73
2022/05/23 08:48:04;;;;;;;;;;;23.90;99.90;;;;;;5065474;28;19991;-73
2022/05/23 08:50:47;;;;;;;;;;;23.90;99.90;;;;;;5073328;28;20378;-73
2022/05/23 08:53:15;;;;;;;;;;;23.90;99.90;;;;;;5068821;28;19909;-73
2022/05/23 08:55:51;;;;;;;;;;;24.10;99.90;;;;;;5072976;28;19970;-73
2022/05/23 08:58:19;;;;;;;;;;;24.20;99.90;;;;;;5047517;28;19916;-73
2022/05/23 09:00:53;;;;;;;;;;;24.40;99.90;;;;;;5067483;28;19967;-73
2022/05/23 09:03:29;;;;;;;;;;;24.40;99.90;;;;;;5068321;28;20019;-74
2022/05/23 09:06:03;;;;;;;;;;;24.30;99.90;;;;;;5057938;28;20383;-73
2022/05/23 09:08:31;;;;;;;;;;;24.10;99.90;;;;;;5057813;28;20394;-74
2022/05/23 09:11:00;;;;;;;;;;;24.10;99.90;;;;;;5051808;28;19922;-73
2022/05/23 09:13:27;;;;;;;;;;;24.00;99.90;;;;;;5069813;28;20255;-73
2022/05/23 09:15:56;;;;;;;;;;;24.10;99.90;;;;;;5053922;28;20501;-73
2022/05/23 09:18:23;;;;;;;;;;;24.20;99.90;;;;;;5053170;28;19913;-73
2022/05/23 09:20:50;;;;;;;;;;;24.20;99.90;;;;;;5059181;28;19919;-73
2022/05/23 09:23:18;;;;;;;;;;;24.20;99.90;;;;;;5062725;28;19913;-73
2022/05/23 09:25:44;;;;;;;;;;;24.30;99.90;;;;;;5065368;28;19913;-73
2022/05/23 09:28:25;;;;;;;;;;;24.30;99.90;;;;;;5062239;28;19923;-73
2022/05/23 09:31:01;;;;;;;;;;;24.30;99.90;;;;;;5078074;28;19920;-84
2022/05/23 09:33:28;;;;;;;;;;;24.20;99.90;;;;;;5055044;28;19912;-69
2022/05/23 09:36:06;;;;;;;;;;;24.10;99.90;;;;;;5065293;28;19922;-73
2022/05/23 09:38:32;;;;;;;;;;;24.20;99.90;;;;;;5067237;28;20305;-73
2022/05/23 09:40:58;;;;;;;;;;;24.30;99.90;;;;;;5063457;28;19967;-73
2022/05/23 09:49:05;;;;;;;;;;;24.00;99.90;;;;;;5047066;28;20379;-73
2022/05/23 09:51:31;;;;;;;;;;;24.10;99.90;;;;;;5056996;28;19945;-72
2022/05/23 09:53:59;;;;;;;;;;;24.30;99.90;;;;;;5057387;28;19998;-72
2022/05/23 09:56:39;;;;;;;;;;;24.10;99.90;;;;;;5056666;28;19919;-84
2022/05/23 09:59:29;;;;;;;;;;;24.10;99.90;;;;;;5056804;28;19962;-85
2022/05/23 10:01:55;;;;;;;;;;;24.20;99.90;;;;;;5046098;28;19915;-86
2022/05/23 10:04:28;;;;;;;;;;;24.30;99.90;;;;;;5037855;28;19909;-85
2022/05/23 10:06:54;;;;;;;;;;;24.10;99.90;;;;;;5054296;28;19909;-72
2022/05/23 10:09:24;;;;;;;;;;;24.10;99.90;;;;;;5037657;28;19920;-74
2022/05/23 10:11:54;;;;;;;;;;;24.40;99.90;;;;;;5037815;28;19920;-74
2022/05/23 10:14:22;;;;;;;;;;;24.30;99.90;;;;;;5028843;28;20011;-73
2022/05/23 10:16:49;;;;;;;;;;;24.40;99.90;;;;;;5028123;28;19921;-72
2022/05/23 10:19:27;;;;;;;;;;;24.60;99.90;;;;;;5028467;28;19943;-74
2022/05/23 10:22:06;;;;;;;;;;;24.90;99.90;;;;;;5029134;28;19921;-73
2022/05/23 10:24:33;;;;;;;;;;;25.10;99.90;;;;;;5031144;28;19921;-72
2022/05/23 10:27:16;;;;;;;;;;;25.40;99.90;;;;;;5026924;28;20065;-76
2022/05/23 10:29:48;;;;;;;;;;;25.60;99.90;;;;;;5027186;28;19967;-73
2022/05/23 10:32:18;;;;;;;;;;;25.80;99.90;;;;;;5011234;28;19916;-74
2022/05/23 10:34:50;;;;;;;;;;;26.00;99.90;;;;;;5027834;28;20446;-73
2022/05/23 10:37:21;;;;;;;;;;;26.00;99.90;;;;;;5028197;28;19932;-72
2022/05/23 10:42:43;;;;;;;;;;;25.80;99.90;;;;;;5050057;28;19936;-73
2022/05/23 10:45:11;;;;;;;;;;;25.70;99.90;;;;;;5050428;28;19925;-73
2022/05/23 10:47:43;;;;;;;;;;;25.60;99.90;;;;;;5050359;28;20341;-72
2022/05/23 10:50:21;;;;;;;;;;;25.60;99.90;;;;;;5049833;28;20376;-82
2022/05/23 10:53:05;;;;;;;;;;;25.60;99.90;;;;;;5050833;28;20015;-77
2022/05/23 10:55:36;;;;;;;;;;;25.50;99.90;;;;;;5050715;28;20400;-77
2022/05/23 10:58:12;;;;;;;;;;;25.60;99.90;;;;;;5049934;28;19931;-73
2022/05/23 11:00:48;;;;;;;;;;;25.80;99.90;;;;;;5051699;28;19919;-73
2022/05/23 11:03:14;;;;;;;;;;;25.90;99.90;;;;;;5063618;28;19915;-72
2022/05/23 11:05:44;;;;;;;;;;;26.10;99.90;;;;;;5072686;28;19908;-73
2022/05/23 11:08:28;;;;;;;;;;;26.30;99.90;;;;;;5053268;28;20003;-73
2022/05/23 11:11:12;;;;;;;;;;;26.30;99.90;;;;;;5071708;28;20366;-72
2022/05/23 11:13:43;;;;;;;;;;;26.60;99.90;;;;;;5069068;28;19969;-72
2022/05/23 11:16:09;;;;;;;;;;;26.90;99.90;;;;;;5074334;28;19954;-72
2022/05/23 11:18:34;;;;;;;;;;;26.90;99.90;;;;;;5071941;28;19997;-73
2022/05/23 11:21:05;;;;;;;;;;;27.10;99.90;;;;;;5060553;28;19920;-72
2022/05/23 11:23:39;;;;;;;;;;;27.60;99.90;;;;;;5048086;28;19912;-73
2022/05/23 11:26:18;;;;;;;;;;;27.70;99.90;;;;;;5054512;28;20283;-73
2022/05/23 11:34:48;;;;;;;;;;;28.40;99.90;;;;;;5068094;28;19995;-87
2022/05/23 11:39:56;;;;;;;;;;;28.90;99.90;;;;;;5058925;28;19908;-73
2022/05/23 11:42:21;;;;;;;;;;;28.90;99.90;;;;;;5071648;28;19908;-77
2022/05/23 11:44:50;;;;;;;;;;;29.00;99.90;;;;;;5059548;28;19912;-73
2022/05/23 11:47:21;;;;;;;;;;;28.80;99.90;;;;;;5051827;28;19909;-72
2022/05/23 11:49:50;;;;;;;;;;;29.00;99.90;;;;;;5052549;28;19919;-72
2022/05/23 11:52:22;;;;;;;;;;;29.10;99.90;;;;;;5072118;28;19999;-72
2022/05/23 11:54:47;;;;;;;;;;;29.40;99.90;;;;;;5052220;28;19917;-72
2022/05/23 11:57:14;;;;;;;;;;;29.60;99.90;;;;;;5060306;28;20363;-72
2022/05/23 11:59:40;;;;;;;;;;;29.60;99.90;;;;;;5053942;28;19920;-72
2022/05/23 12:02:08;;;;;;;;;;;29.60;99.90;;;;;;5056449;28;20303;-73
2022/05/23 12:04:35;;;;;;;;;;;29.70;99.90;;;;;;5058638;28;19969;-73
2022/05/23 12:07:00;;;;;;;;;;;29.60;99.90;;;;;;5061551;28;20368;-72
2022/05/23 12:09:27;;;;;;;;;;;29.70;99.90;;;;;;5061406;28;19950;-72
2022/05/23 12:12:13;;;;;;;;;;;29.80;99.90;;;;;;5054267;28;19909;-72
2022/05/23 12:14:38;;;;;;;;;;;29.70;99.90;;;;;;5044834;28;19938;-75
2022/05/23 12:17:10;;;;;;;;;;;29.20;99.90;;;;;;5067440;28;20360;-72
2022/05/23 12:19:39;;;;;;;;;;;28.70;99.90;;;;;;5045655;28;20356;-73
2022/05/23 12:22:22;;;;;;;;;;;28.90;99.90;;;;;;5059591;28;20096;-72
2022/05/23 12:25:06;;;;;;;;;;;28.90;99.90;;;;;;5064032;28;19908;-77
2022/05/23 12:27:51;;;;;;;;;;;28.40;99.90;;;;;;5070808;28;19913;-81
2022/05/23 12:30:17;;;;;;;;;;;28.60;99.90;;;;;;5066658;28;19921;-80
2022/05/23 12:33:04;;;;;;;;;;;28.60;99.90;;;;;;5053737;28;19916;-82
2022/05/23 12:35:44;;;;;;;;;;;28.40;99.90;;;;;;5065362;28;20390;-73
2022/05/23 12:38:20;;;;;;;;;;;28.10;99.90;;;;;;5055988;28;19920;-73
2022/05/23 12:40:45;;;;;;;;;;;28.30;99.90;;;;;;5065706;28;20303;-72
2022/05/23 12:43:14;;;;;;;;;;;28.40;99.90;;;;;;5067188;28;19952;-72
2022/05/23 12:45:48;;;;;;;;;;;28.40;99.90;;;;;;5061752;28;20320;-72
2022/05/23 12:48:30;;;;;;;;;;;28.30;99.90;;;;;;5071481;28;19931;-72
2022/05/23 12:51:14;;;;;;;;;;;28.10;99.90;;;;;;5065150;28;19909;-73
2022/05/23 12:53:46;;;;;;;;;;;27.90;99.90;;;;;;5073865;28;19909;-72
2022/05/23 12:56:16;;;;;;;;;;;27.80;99.90;;;;;;5063271;28;19957;-73
2022/05/23 12:58:45;;;;;;;;;;;27.40;99.90;;;;;;5059454;28;20022;-76
2022/05/23 13:01:21;;;;;;;;;;;27.20;99.90;;;;;;5094694;28;20291;-73
2022/05/23 13:03:52;;;;;;;;;;;27.00;99.90;;;;;;5071450;28;20010;-76
2022/05/23 13:06:24;;;;;;;;;;;26.90;99.90;;;;;;5049369;28;19956;-73
2022/05/23 13:08:56;;;;;;;;;;;27.00;99.90;;;;;;5057418;28;20007;-72
2022/05/23 13:11:29;;;;;;;;;;;26.80;99.90;;;;;;5056135;28;19912;-73
2022/05/23 13:13:58;;;;;;;;;;;26.70;99.90;;;;;;5062299;28;19913;-74
2022/05/23 13:16:28;;;;;;;;;;;26.60;99.90;;;;;;5062208;28;20015;-72
2022/05/23 13:27:10;;;;;;;;;;;26.80;99.90;;;;;;5058942;28;20433;-73
2022/05/23 13:29:36;;;;;;;;;;;26.80;99.90;;;;;;5055397;28;20315;-72
2022/05/23 13:32:07;;;;;;;;;;;26.60;99.90;;;;;;5069640;28;20008;-72
2022/05/23 13:34:34;;;;;;;;;;;26.60;99.90;;;;;;5060755;28;19912;-72
2022/05/23 13:37:00;;;;;;;;;;;26.70;99.90;;;;;;5070406;28;19955;-72
2022/05/23 13:39:29;;;;;;;;;;;26.80;99.90;;;;;;5064438;28;19916;-73
2022/05/23 13:41:55;;;;;;;;;;;26.90;99.90;;;;;;5060828;28;20425;-73
2022/05/23 13:44:23;;;;;;;;;;;27.20;99.90;;;;;;5053829;28;19908;-74
2022/05/23 13:46:51;;;;;;;;;;;27.40;99.90;;;;;;5055532;28;19971;-72
2022/05/23 13:49:21;;;;;;;;;;;27.60;99.90;;;;;;5049603;28;19924;-72
2022/05/23 13:51:51;;;;;;;;;;;27.70;99.90;;;;;;5051485;28;20276;-72
2022/05/23 13:54:20;;;;;;;;;;;28.00;99.90;;;;;;5054991;28;19912;-74
2022/05/23 13:56:53;;;;;;;;;;;28.10;99.90;;;;;;5054656;28;19924;-72
2022/05/23 13:59:24;;;;;;;;;;;28.20;99.90;;;;;;5051906;28;20372;-73
2022/05/23 14:02:16;;;;;;;;;;;28.30;99.90;;;;;;5049844;28;19912;-73
2022/05/23 14:04:42;;;;;;;;;;;28.70;99.90;;;;;;5036305;28;19917;-73
2022/05/23 14:07:09;;;;;;;;;;;28.40;99.90;;;;;;5032196;28;19914;-75
2022/05/23 14:09:39;;;;;;;;;;;28.30;99.90;;;;;;5049154;28;19917;-73
2022/05/23 14:12:06;;;;;;;;;;;28.40;99.90;;;;;;5046605;28;20365;-72
2022/05/23 14:14:34;;;;;;;;;;;28.40;99.90;;;;;;5032856;28;20003;-73
2022/05/23 14:17:02;;;;;;;;;;;28.50;99.90;;;;;;5044844;28;20484;-73
2022/05/23 14:19:29;;;;;;;;;;;28.70;99.90;;;;;;5034766;28;20004;-73
2022/05/23 14:22:03;;;;;;;;;;;28.80;99.90;;;;;;5033360;28;20035;-73
2022/05/23 14:24:30;;;;;;;;;;;28.90;99.90;;;;;;5013578;28;20292;-73
2022/05/23 14:27:21;;;;;;;;;;;28.70;99.90;;;;;;5023086;28;20422;-75
2022/05/23 14:29:47;;;;;;;;;;;28.80;99.90;;;;;;5009612;28;19929;-73
2022/05/23 14:32:25;;;;;;;;;;;28.80;99.90;;;;;;4999062;28;19913;-77
2022/05/23 14:34:50;;;;;;;;;;;28.70;99.90;;;;;;4987217;28;20297;-75
2022/05/23 14:37:18;;;;;;;;;;;28.60;99.90;;;;;;4978280;28;19913;-72
2022/05/23 14:39:48;;;;;;;;;;;28.50;99.90;;;;;;4996613;28;19913;-72
2022/05/23 14:42:19;;;;;;;;;;;28.40;99.90;;;;;;4996034;28;19922;-78
2022/05/23 14:44:44;;;;;;;;;;;28.60;99.90;;;;;;4991855;28;19921;-78
2022/05/23 14:47:16;;;;;;;;;;;28.70;99.90;;;;;;5012504;28;20383;-74
2022/05/23 14:49:56;;;;;;;;;;;28.80;99.90;;;;;;5008233;28;20013;-71
2022/05/23 14:52:24;;;;;;;;;;;28.80;99.90;;;;;;5000083;28;19914;-70
2022/05/23 15:00:37;;;;;;;;;;;29.30;99.90;;;;;;4992271;28;20305;-78
2022/05/23 15:03:20;;;;;;;;;;;29.00;99.90;;;;;;4998081;28;19913;-78
2022/05/23 15:05:46;;;;;;;;;;;29.30;99.90;;;;;;5022621;28;19931;-79
2022/05/23 15:08:12;;;;;;;;;;;29.30;99.90;;;;;;5093500;28;19920;-78
2022/05/23 15:10:38;;;;;;;;;;;30.20;99.90;;;;;;5070023;28;20394;-81
2022/05/23 15:13:04;;;;;;;;;;;31.00;99.90;;;;;;5064048;28;19916;-88
2022/05/23 15:15:30;;;;;;;;;;;32.40;99.90;;;;;;5061444;28;19917;-85
2022/05/23 15:17:57;;;;;;;;;;;33.70;99.90;;;;;;5054350;28;20447;-85
2022/05/23 15:20:24;;;;;;;;;;;34.60;99.90;;;;;;5053908;28;19923;-86
2022/05/23 15:22:52;;;;;;;;;;;35.40;99.90;;;;;;5054391;28;19909;-85
2022/05/23 15:25:19;;;;;;;;;;;36.40;99.90;;;;;;5063977;28;19920;-82
2022/05/23 15:27:47;;;;;;;;;;;37.60;99.90;;;;;;5054524;28;19909;-82
2022/05/23 15:30:19;;;;;;;;;;;38.50;99.90;;;;;;5066911;28;20062;-82
2022/05/23 15:32:45;;;;;;;;;;;39.00;99.90;;;;;;5054172;28;19966;-81
2022/05/23 15:35:16;;;;;;;;;;;39.00;99.90;;;;;;5052790;28;20011;-81
2022/05/23 15:37:43;;;;;;;;;;;38.30;99.90;;;;;;5053653;28;19935;-81
2022/05/23 15:40:10;;;;;;;;;;;37.20;99.90;;;;;;5053852;28;19912;-81
2022/05/23 15:42:38;;;;;;;;;;;36.80;99.90;;;;;;5052912;28;19916;-80